SLRY  Reyes  Airport

Reyes, Bolivia

Add Bookmark
ICAO SLRY
IATA REY
Type Airport
Status Operational
Latitude
14° 18' 15" S
-14.304400
Longitude
67° 21' 12" W
-67.353401
Local (DST -4) UTC (GMT -4)
Jul 28, 2015 09:16 Jul 28, 2015 13:16
Sunrise-Sunset Local UTC
Begin Civil Twilight 06:28 10:28
Sunrise 06:51 10:51
Sunset 06:20 22:20
End Civil Twilight 06:43 22:43
VFR
VFR
MVFR
MVFR
IFR
IFR
LIFR
LIFR
Unknown
Unavailable

Current Weather

METAR Observed
SLRY 281300Z 00000KT 9999 NSC 24/22 Q1015 Tue, Jul 28, 2015 @ 13:00 UTC
(16 Minutes ago)
Wind Visibility Conditions
Calm 10 km or more
  • No significant weather
Temperatures Readings Precipitation
Current Temp
24°C
75°F
Dewpoint
22°C
72°F
Humidity 89%
Altimeter 29.97" Hg
Sea Level Pressure 1,015 mb
Field Elevation
280 m
919 ft
None Recorded

Additional weather within a 92.6km radius of SLRY

Map ICAO Location
SLRQ 20.7km SW (229°)
VFR
VFR
MVFR
MVFR
IFR
IFR
LIFR
LIFR
Unknown
Unavailable
-
-

CheckWX.com is intended as a tool to help pilots better visualize weather data. It is not intended as a substitute for an official weather briefing obtained from a Flight Service Station. CheckWX.com does not meet the FAA requirements for an official pre-flight weather briefing. Therefore, it's important that pilots still call and obtain an official FSS pre-flight weather briefing.

© 2007-2015 CheckWX.com
13:16:49 UTC